createdAt,value
2022-10-07T00:01:00.527Z,17.11
2022-10-07T00:03:28.918Z,17.03
2022-10-07T00:06:00.937Z,16.96
2022-10-07T00:08:28.961Z,17.02
2022-10-07T00:10:56.785Z,16.93
2022-10-07T00:13:24.303Z,16.95
2022-10-07T00:15:52.037Z,16.88
2022-10-07T00:18:19.473Z,16.85
2022-10-07T00:20:46.988Z,16.83
2022-10-07T00:23:14.781Z,16.82
2022-10-07T00:25:42.498Z,16.82
2022-10-07T00:28:10.075Z,16.76
2022-10-07T00:30:37.931Z,16.68
2022-10-07T00:33:05.395Z,16.61
2022-10-07T00:35:35.516Z,16.58
2022-10-07T00:38:03.346Z,16.55
2022-10-07T00:40:30.800Z,16.45
2022-10-07T00:42:59.184Z,16.46
2022-10-07T00:45:27.635Z,16.48
2022-10-07T00:47:55.076Z,16.57
2022-10-07T00:50:25.618Z,16.64
2022-10-07T00:53:01.575Z,16.60
2022-10-07T00:55:30.188Z,16.48
2022-10-07T00:58:00.510Z,16.25
2022-10-07T01:00:27.951Z,16.46
2022-10-07T01:02:55.459Z,16.48
2022-10-07T01:05:23.274Z,16.53
2022-10-07T01:07:51.106Z,16.54
2022-10-07T01:10:20.237Z,16.61
2022-10-07T01:13:14.595Z,16.55
2022-10-07T01:15:54.844Z,16.57
2022-10-07T01:18:32.314Z,16.55
2022-10-07T01:21:37.067Z,16.51
2022-10-07T01:24:33.342Z,16.62
2022-10-07T01:27:01.974Z,16.60
2022-10-07T01:29:40.664Z,16.59
2022-10-07T01:32:24.301Z,16.62
2022-10-07T01:34:54.192Z,16.64
2022-10-07T01:37:22.873Z,16.47
2022-10-07T01:39:53.832Z,16.52
2022-10-07T01:42:21.805Z,16.48
2022-10-07T01:44:53.195Z,16.53
2022-10-07T01:47:21.078Z,16.45
2022-10-07T01:49:48.691Z,16.44
2022-10-07T01:52:31.734Z,16.47
2022-10-07T01:55:28.111Z,16.47
2022-10-07T01:58:11.946Z,16.41
2022-10-07T02:00:47.020Z,16.41
2022-10-07T02:03:15.273Z,16.19
2022-10-07T02:05:53.957Z,16.33
2022-10-07T02:08:37.578Z,16.33
2022-10-07T02:11:23.541Z,16.30
2022-10-07T02:14:14.984Z,16.32
2022-10-07T02:16:56.721Z,16.29
2022-10-07T02:19:35.189Z,16.31
2022-10-07T02:22:03.994Z,16.08
2022-10-07T02:24:34.788Z,16.09
2022-10-07T02:27:06.586Z,16.13
2022-10-07T02:29:35.956Z,16.05
2022-10-07T02:32:07.355Z,16.10
2022-10-07T02:34:36.196Z,16.06
2022-10-07T02:37:14.853Z,15.96
2022-10-07T02:39:43.685Z,16.06
2022-10-07T02:42:17.306Z,16.07
2022-10-07T02:45:02.270Z,16.01
2022-10-07T02:47:35.522Z,15.94
2022-10-07T02:50:06.888Z,15.92
2022-10-07T02:52:35.162Z,15.92
2022-10-07T02:55:10.029Z,15.82
2022-10-07T02:57:40.215Z,15.81
2022-10-07T03:00:11.354Z,15.91
2022-10-07T03:02:44.993Z,15.88
2022-10-07T03:05:14.607Z,15.68
2022-10-07T03:07:42.553Z,15.68
2022-10-07T03:10:10.377Z,15.61
2022-10-07T03:12:38.183Z,15.80
2022-10-07T03:15:06.139Z,15.80
2022-10-07T03:17:33.621Z,15.56
2022-10-07T03:20:01.378Z,15.64
2022-10-07T03:22:29.508Z,15.67
2022-10-07T03:24:56.935Z,15.70
2022-10-07T03:27:25.272Z,15.53
2022-10-07T03:29:54.346Z,15.62
2022-10-07T03:32:22.758Z,15.65
2022-10-07T03:34:50.885Z,15.67
2022-10-07T03:37:18.504Z,15.60
2022-10-07T03:39:46.073Z,15.73
2022-10-07T03:42:13.783Z,15.77
2022-10-07T03:44:41.367Z,15.68
2022-10-07T03:47:10.844Z,15.45
2022-10-07T03:49:39.822Z,15.32
2022-10-07T03:52:07.345Z,15.50
2022-10-07T03:54:35.091Z,15.49
2022-10-07T03:57:23.676Z,15.53
2022-10-07T03:59:53.683Z,15.54
2022-10-07T04:02:24.819Z,15.60
2022-10-07T04:04:52.775Z,15.57
2022-10-07T04:07:23.811Z,15.68
2022-10-07T04:09:51.695Z,15.69
2022-10-07T04:12:19.913Z,15.67
2022-10-07T04:14:47.410Z,15.57
2022-10-07T04:17:18.203Z,15.54
2022-10-07T04:19:46.238Z,15.55
2022-10-07T04:22:13.858Z,15.56
2022-10-07T04:24:41.378Z,15.47
2022-10-07T04:27:09.135Z,15.50
2022-10-07T04:29:39.115Z,15.44
2022-10-07T04:32:07.998Z,15.42
2022-10-07T04:34:35.807Z,15.40
2022-10-07T04:37:03.255Z,15.30
2022-10-07T04:39:55.987Z,15.32
2022-10-07T04:42:36.864Z,15.38
2022-10-07T04:45:06.110Z,15.39
2022-10-07T04:47:35.599Z,15.40
2022-10-07T04:50:04.092Z,15.44
2022-10-07T04:52:31.839Z,15.54
2022-10-07T04:54:59.975Z,15.54
2022-10-07T04:57:27.482Z,15.60
2022-10-07T04:59:55.195Z,15.56
2022-10-07T05:02:23.036Z,15.54
2022-10-07T05:04:50.510Z,15.51
2022-10-07T05:07:18.425Z,15.37
2022-10-07T05:09:46.369Z,15.35
2022-10-07T05:12:17.725Z,15.43
2022-10-07T05:14:46.227Z,15.21
2022-10-07T05:17:15.028Z,15.33
2022-10-07T05:19:42.521Z,15.38
2022-10-07T05:22:10.065Z,15.44
2022-10-07T05:24:37.748Z,15.40
2022-10-07T05:27:05.175Z,15.41
2022-10-07T05:29:32.668Z,15.46
2022-10-07T05:32:04.709Z,15.53
2022-10-07T05:34:32.930Z,15.58
2022-10-07T05:37:00.696Z,15.67
2022-10-07T05:39:28.124Z,15.70
2022-10-07T05:41:55.702Z,15.70
2022-10-07T05:44:23.835Z,15.51
2022-10-07T05:46:51.542Z,15.58
2022-10-07T05:49:19.251Z,15.56
2022-10-07T05:51:47.024Z,15.68
2022-10-07T05:54:14.542Z,15.92
2022-10-07T05:56:42.113Z,16.07
2022-10-07T05:59:10.521Z,16.25
2022-10-07T06:01:38.226Z,16.83
2022-10-07T06:04:08.184Z,16.86
2022-10-07T06:06:36.886Z,16.45
2022-10-07T06:09:23.685Z,16.73
2022-10-07T06:12:10.686Z,16.80
2022-10-07T06:14:38.547Z,16.69
2022-10-07T06:17:06.855Z,16.95
2022-10-07T06:19:37.112Z,17.07
2022-10-07T06:22:05.061Z,17.12
2022-10-07T06:24:33.877Z,17.18
2022-10-07T06:27:02.429Z,17.38
2022-10-07T06:29:30.172Z,17.49
2022-10-07T06:31:58.181Z,17.59
2022-10-07T06:34:26.545Z,17.66
2022-10-07T06:36:54.899Z,17.61
2022-10-07T06:39:22.906Z,17.69
2022-10-07T06:41:54.463Z,17.96
2022-10-07T06:44:23.267Z,17.99
2022-10-07T06:46:52.218Z,18.10
2022-10-07T06:49:20.354Z,17.84
2022-10-07T06:51:48.142Z,18.10
2022-10-07T06:54:16.042Z,18.27
2022-10-07T06:56:43.716Z,18.36
2022-10-07T06:59:11.397Z,18.28
2022-10-07T07:01:39.506Z,18.28
2022-10-07T07:04:07.122Z,18.38
2022-10-07T07:06:38.952Z,18.27
2022-10-07T07:09:07.183Z,18.31
2022-10-07T07:11:36.965Z,18.38
2022-10-07T07:14:05.265Z,18.50
2022-10-07T07:16:33.599Z,18.48
2022-10-07T07:19:03.479Z,18.26
2022-10-07T07:21:31.728Z,18.61
2022-10-07T07:24:01.349Z,18.70
2022-10-07T07:26:30.182Z,18.67
2022-10-07T07:29:03.407Z,18.56
2022-10-07T07:31:33.846Z,18.70
2022-10-07T07:34:03.558Z,18.43
2022-10-07T07:36:33.233Z,18.37
2022-10-07T07:39:06.655Z,18.34
2022-10-07T07:41:37.174Z,18.50
2022-10-07T07:44:06.128Z,18.21
2022-10-07T07:46:43.266Z,18.50
2022-10-07T07:49:12.919Z,18.44
2022-10-07T07:51:44.229Z,18.58
2022-10-07T07:54:13.326Z,18.77
2022-10-07T07:56:41.993Z,19.00
2022-10-07T07:59:10.974Z,19.14
2022-10-07T08:01:39.136Z,19.22
2022-10-07T08:04:07.398Z,19.27
2022-10-07T08:06:35.242Z,19.06
2022-10-07T08:09:03.823Z,19.36
2022-10-07T08:11:33.090Z,19.26
2022-10-07T08:14:00.918Z,19.44
2022-10-07T08:16:29.424Z,19.61
2022-10-07T08:18:58.274Z,19.64
2022-10-07T08:21:27.816Z,19.82
2022-10-07T08:23:58.478Z,19.62
2022-10-07T08:26:28.798Z,19.85
2022-10-07T08:28:57.896Z,20.01
2022-10-07T08:31:27.609Z,19.69
2022-10-07T08:33:58.476Z,19.53
2022-10-07T08:36:27.824Z,19.80
2022-10-07T08:38:55.389Z,19.96
2022-10-07T08:41:42.591Z,19.46
2022-10-07T08:44:16.543Z,19.70
2022-10-07T08:47:06.593Z,19.68
2022-10-07T08:50:04.313Z,19.43
2022-10-07T08:52:37.690Z,19.55
2022-10-07T08:55:26.376Z,19.64
2022-10-07T08:58:14.109Z,20.01
2022-10-07T09:00:50.483Z,20.26
2022-10-07T09:03:37.242Z,20.07
2022-10-07T09:06:10.021Z,19.26
2022-10-07T09:08:41.521Z,19.89
2022-10-07T09:11:16.159Z,19.85
2022-10-07T09:13:50.852Z,19.60
2022-10-07T09:16:29.105Z,19.66
2022-10-07T09:19:00.994Z,19.75
2022-10-07T09:21:50.581Z,19.51
2022-10-07T09:24:24.530Z,19.83
2022-10-07T09:26:55.306Z,19.95
2022-10-07T09:29:26.541Z,20.30
2022-10-07T09:31:54.573Z,19.82
2022-10-07T09:34:27.950Z,20.33
2022-10-07T09:37:14.674Z,19.48
2022-10-07T09:39:43.438Z,19.90
2022-10-07T09:42:29.636Z,20.37
2022-10-07T09:45:00.815Z,20.31
2022-10-07T09:47:40.461Z,20.30
2022-10-07T09:50:29.997Z,20.51
2022-10-07T09:52:57.818Z,20.88
2022-10-07T09:55:39.682Z,21.08
2022-10-07T09:58:27.066Z,20.95
2022-10-07T10:00:56.214Z,20.97
2022-10-07T10:03:32.314Z,20.84
2022-10-07T10:06:02.251Z,21.07
2022-10-07T10:08:34.056Z,20.94
2022-10-07T10:11:02.780Z,20.89
2022-10-07T10:13:38.729Z,21.00
2022-10-07T10:16:28.697Z,20.77
2022-10-07T10:19:04.892Z,20.86
2022-10-07T10:21:36.818Z,21.44
2022-10-07T10:24:12.655Z,21.41
2022-10-07T10:27:16.069Z,21.26
2022-10-07T10:29:55.726Z,20.95
2022-10-07T10:32:34.871Z,21.39
2022-10-07T10:35:23.398Z,21.24
2022-10-07T10:37:58.240Z,21.63
2022-10-07T10:40:36.178Z,21.67
2022-10-07T10:43:25.394Z,21.58
2022-10-07T10:45:55.772Z,21.54
2022-10-07T10:48:38.546Z,21.61
2022-10-07T10:51:13.389Z,21.34
2022-10-07T10:54:38.749Z,21.69
2022-10-07T10:57:12.075Z,21.68
2022-10-07T11:00:01.345Z,22.32
2022-10-07T11:02:38.353Z,22.32
2022-10-07T11:05:06.422Z,22.40
2022-10-07T11:07:43.639Z,22.20
2022-10-07T11:10:35.220Z,22.52
2022-10-07T11:13:30.620Z,21.72
2022-10-07T11:16:08.868Z,22.33
2022-10-07T11:18:49.986Z,21.63
2022-10-07T11:21:23.357Z,22.26
2022-10-07T11:24:02.206Z,22.27
2022-10-07T11:26:44.644Z,22.45
2022-10-07T11:29:39.481Z,22.13
2022-10-07T11:32:13.864Z,22.28
2022-10-07T11:34:54.433Z,22.67
2022-10-07T11:37:22.084Z,22.24
2022-10-07T11:39:50.756Z,22.26
2022-10-07T11:42:29.153Z,22.43
2022-10-07T11:45:07.153Z,22.24
2022-10-07T11:47:40.270Z,21.83
2022-10-07T11:50:17.289Z,22.21
2022-10-07T11:52:47.899Z,22.43
2022-10-07T11:55:43.532Z,22.51
2022-10-07T11:58:24.261Z,22.49
2022-10-07T12:01:29.085Z,22.85
2022-10-07T12:04:24.996Z,23.13
2022-10-07T12:07:30.506Z,23.10
2022-10-07T12:10:04.020Z,23.05
2022-10-07T12:12:42.552Z,22.99
2022-10-07T12:15:29.329Z,22.59
2022-10-07T12:18:19.971Z,23.01
2022-10-07T12:20:51.174Z,22.84
2022-10-07T12:23:28.283Z,22.58
2022-10-07T12:26:01.233Z,22.40
2022-10-07T12:28:41.875Z,22.45
2022-10-07T12:31:32.278Z,22.57
2022-10-07T12:34:10.999Z,23.07
2022-10-07T12:36:41.035Z,23.25
2022-10-07T12:39:09.716Z,23.45
2022-10-07T12:41:40.468Z,23.38
2022-10-07T12:44:32.488Z,23.09
2022-10-07T12:47:20.693Z,23.41
2022-10-07T12:50:10.479Z,23.38
2022-10-07T12:52:54.720Z,23.49
2022-10-07T12:55:37.177Z,23.37
2022-10-07T12:58:37.657Z,23.39
2022-10-07T13:01:37.617Z,23.27
2022-10-07T13:04:11.382Z,22.69
2022-10-07T13:07:04.048Z,23.28
2022-10-07T13:09:49.778Z,23.04
2022-10-07T13:12:27.576Z,23.07
2022-10-07T13:15:11.159Z,22.73
2022-10-07T13:17:49.892Z,22.96
2022-10-07T13:20:33.310Z,22.65
2022-10-07T13:23:20.902Z,22.87
2022-10-07T13:25:55.525Z,23.00
2022-10-07T13:28:25.709Z,22.77
2022-10-07T13:30:53.636Z,22.99
2022-10-07T13:33:26.378Z,22.69
2022-10-07T13:36:17.286Z,23.11
2022-10-07T13:38:47.244Z,23.45
2022-10-07T13:41:16.105Z,23.32
2022-10-07T13:43:44.587Z,23.29
2022-10-07T13:46:12.831Z,23.05
2022-10-07T13:48:45.537Z,23.06
2022-10-07T13:51:20.319Z,22.79
2022-10-07T13:53:53.346Z,22.92
2022-10-07T13:56:25.060Z,22.96
2022-10-07T13:58:55.285Z,23.00
2022-10-07T14:01:28.879Z,22.76
2022-10-07T14:04:19.895Z,23.43
2022-10-07T14:06:53.756Z,23.29
2022-10-07T14:09:24.413Z,23.35
2022-10-07T14:12:02.102Z,23.37
2022-10-07T14:14:38.127Z,23.64
2022-10-07T14:17:20.916Z,23.39
2022-10-07T14:19:54.083Z,23.39
2022-10-07T14:22:50.198Z,23.44
2022-10-07T14:25:29.614Z,23.75
2022-10-07T14:27:57.572Z,23.77
2022-10-07T14:30:55.549Z,23.85
2022-10-07T14:33:49.100Z,24.05
2022-10-07T14:36:17.823Z,24.08
2022-10-07T14:38:49.935Z,23.58
2022-10-07T14:41:20.713Z,23.61
2022-10-07T14:43:49.800Z,23.64
2022-10-07T14:46:25.072Z,23.89
2022-10-07T14:48:54.099Z,23.66
2022-10-07T14:51:27.133Z,23.96
2022-10-07T14:53:57.227Z,23.82
2022-10-07T14:56:31.041Z,23.74
2022-10-07T14:58:58.876Z,23.72
2022-10-07T15:01:26.724Z,23.88
2022-10-07T15:03:54.237Z,23.64
2022-10-07T15:06:22.471Z,23.20
2022-10-07T15:08:50.035Z,23.53
2022-10-07T15:11:19.727Z,23.34
2022-10-07T15:13:48.424Z,23.37
2022-10-07T15:16:18.925Z,23.55
2022-10-07T15:18:52.122Z,23.43
2022-10-07T15:21:21.954Z,23.45
2022-10-07T15:23:52.083Z,23.01
2022-10-07T15:26:24.164Z,23.24
2022-10-07T15:28:56.519Z,23.32
2022-10-07T15:31:26.731Z,23.35
2022-10-07T15:33:57.222Z,23.09
2022-10-07T15:36:29.277Z,23.12
2022-10-07T15:38:59.278Z,23.16
2022-10-07T15:41:29.561Z,23.10
2022-10-07T15:43:58.833Z,23.14
2022-10-07T15:46:27.917Z,23.05
2022-10-07T15:48:56.493Z,23.11
2022-10-07T15:51:25.546Z,23.06
2022-10-07T15:53:54.079Z,22.90
2022-10-07T15:56:21.777Z,22.98
2022-10-07T15:58:49.493Z,22.97
2022-10-07T16:01:17.046Z,22.93
2022-10-07T16:03:47.909Z,22.72
2022-10-07T16:06:17.863Z,22.66
2022-10-07T16:08:45.709Z,22.66
2022-10-07T16:11:13.597Z,22.71
2022-10-07T16:13:43.422Z,22.70
2022-10-07T16:16:15.997Z,22.64
2022-10-07T16:18:46.033Z,22.64
2022-10-07T16:21:16.739Z,22.64
2022-10-07T16:23:46.286Z,22.59
2022-10-07T16:26:19.477Z,22.48
2022-10-07T16:29:08.452Z,22.37
2022-10-07T16:31:41.218Z,22.43
2022-10-07T16:34:11.126Z,22.38
2022-10-07T16:36:43.363Z,22.29
2022-10-07T16:39:12.994Z,22.21
2022-10-07T16:41:41.674Z,22.17
2022-10-07T16:44:09.191Z,22.05
2022-10-07T16:46:37.615Z,22.14
2022-10-07T16:49:07.717Z,22.02
2022-10-07T16:51:36.673Z,22.04
2022-10-07T16:54:06.757Z,21.99
2022-10-07T16:56:36.150Z,21.97
2022-10-07T16:59:06.875Z,21.96
2022-10-07T17:01:34.730Z,21.87
2022-10-07T17:04:02.383Z,21.88
2022-10-07T17:06:30.761Z,21.82
2022-10-07T17:09:04.408Z,21.84
2022-10-07T17:11:33.693Z,21.80
2022-10-07T17:14:15.537Z,21.75
2022-10-07T17:16:45.723Z,21.68
2022-10-07T17:19:18.646Z,21.60
2022-10-07T17:21:47.703Z,21.59
2022-10-07T17:24:17.775Z,21.53
2022-10-07T17:26:45.955Z,21.53
2022-10-07T17:29:16.534Z,21.53
2022-10-07T17:31:48.215Z,21.46
2022-10-07T17:34:16.506Z,21.38
2022-10-07T17:36:44.341Z,21.31
2022-10-07T17:39:12.289Z,21.24
2022-10-07T17:41:40.227Z,21.25
2022-10-07T17:44:11.864Z,21.21
2022-10-07T17:46:40.521Z,21.13
2022-10-07T17:49:11.554Z,21.12
2022-10-07T17:51:42.495Z,21.12
2022-10-07T17:54:12.040Z,21.02
2022-10-07T17:56:39.699Z,21.04
2022-10-07T17:59:07.273Z,21.00
2022-10-07T18:01:35.423Z,20.93
2022-10-07T18:04:09.830Z,20.80
2022-10-07T18:06:38.860Z,20.83
2022-10-07T18:09:08.195Z,20.83
2022-10-07T18:11:54.600Z,20.80
2022-10-07T18:14:41.395Z,20.76
2022-10-07T18:17:10.428Z,20.72
2022-10-07T18:19:39.791Z,20.69
2022-10-07T18:22:07.928Z,20.51
2022-10-07T18:24:35.370Z,20.52
2022-10-07T18:27:03.283Z,20.48
2022-10-07T18:29:33.121Z,20.47
2022-10-07T18:32:01.064Z,20.50
2022-10-07T18:34:28.929Z,20.48
2022-10-07T18:36:57.355Z,20.49
2022-10-07T18:39:27.648Z,20.47
2022-10-07T18:41:56.038Z,20.43
2022-10-07T18:44:23.599Z,20.40
2022-10-07T18:46:51.380Z,20.36
2022-10-07T18:49:19.238Z,20.33
2022-10-07T18:51:47.342Z,20.33
2022-10-07T18:54:14.865Z,20.24
2022-10-07T18:56:42.596Z,20.28
2022-10-07T18:59:13.155Z,20.26
2022-10-07T19:01:41.071Z,20.18
2022-10-07T19:04:10.160Z,20.17
2022-10-07T19:06:39.832Z,20.10
2022-10-07T19:09:09.499Z,20.08
2022-10-07T19:11:37.216Z,20.01
2022-10-07T19:14:04.828Z,19.94
2022-10-07T19:16:35.315Z,19.94
2022-10-07T19:19:15.580Z,19.88
2022-10-07T19:21:46.247Z,19.86
2022-10-07T19:24:15.496Z,19.76
2022-10-07T19:26:45.886Z,19.70
2022-10-07T19:29:14.373Z,19.68
2022-10-07T19:31:44.447Z,19.63
2022-10-07T19:34:21.044Z,19.62
2022-10-07T19:36:49.945Z,19.61
2022-10-07T19:39:19.979Z,19.54
2022-10-07T19:41:48.259Z,19.50
2022-10-07T19:44:16.431Z,19.55
2022-10-07T19:46:44.263Z,19.39
2022-10-07T19:49:12.022Z,19.42
2022-10-07T19:51:41.920Z,19.22
2022-10-07T19:54:10.905Z,19.15
2022-10-07T19:56:39.318Z,19.02
2022-10-07T19:59:12.077Z,18.95
2022-10-07T20:01:42.264Z,18.88
2022-10-07T20:04:15.947Z,18.80
2022-10-07T20:06:43.800Z,18.72
2022-10-07T20:09:14.374Z,18.55
2022-10-07T20:11:43.119Z,18.57
2022-10-07T20:14:10.948Z,18.51
2022-10-07T20:16:39.273Z,18.39
2022-10-07T20:19:10.931Z,18.40
2022-10-07T20:21:39.462Z,18.34
2022-10-07T20:24:08.405Z,18.29
2022-10-07T20:26:38.260Z,18.18
2022-10-07T20:29:08.762Z,18.14
2022-10-07T20:31:39.162Z,18.10
2022-10-07T20:34:08.333Z,18.10
2022-10-07T20:36:37.952Z,18.06
2022-10-07T20:39:33.050Z,18.07
2022-10-07T20:42:19.642Z,17.80
2022-10-07T20:44:49.236Z,17.71
2022-10-07T20:47:17.782Z,17.80
2022-10-07T20:49:45.486Z,17.82
2022-10-07T20:52:17.056Z,17.81
2022-10-07T20:54:45.660Z,17.82
2022-10-07T20:57:16.340Z,17.72
2022-10-07T20:59:44.270Z,17.81
2022-10-07T21:02:13.886Z,17.72
2022-10-07T21:04:41.625Z,17.72
2022-10-07T21:07:09.055Z,17.80
2022-10-07T21:09:36.918Z,17.73
2022-10-07T21:12:07.439Z,17.63
2022-10-07T21:14:36.617Z,17.70
2022-10-07T21:17:05.266Z,17.72
2022-10-07T21:19:35.526Z,17.69
2022-10-07T21:22:06.839Z,17.75
2022-10-07T21:24:34.785Z,17.76
2022-10-07T21:27:04.211Z,17.76
2022-10-07T21:29:32.116Z,17.74
2022-10-07T21:32:00.901Z,17.73
2022-10-07T21:34:29.890Z,17.68
2022-10-07T21:36:57.722Z,17.64
2022-10-07T21:39:26.433Z,17.60
2022-10-07T21:41:54.334Z,17.53
2022-10-07T21:44:21.794Z,17.50
2022-10-07T21:46:49.897Z,17.43
2022-10-07T21:49:18.246Z,17.43
2022-10-07T21:51:45.687Z,17.08
2022-10-07T21:54:14.505Z,17.17
2022-10-07T21:56:43.676Z,17.23
2022-10-07T21:59:11.370Z,17.03
2022-10-07T22:01:39.282Z,17.12
2022-10-07T22:04:08.131Z,17.11
2022-10-07T22:06:54.255Z,17.09
2022-10-07T22:09:21.972Z,17.11
2022-10-07T22:11:50.298Z,17.07
2022-10-07T22:14:19.131Z,17.07
2022-10-07T22:16:49.865Z,17.06
2022-10-07T22:19:20.263Z,17.06
2022-10-07T22:21:48.003Z,16.98
2022-10-07T22:24:15.457Z,16.94
2022-10-07T22:26:46.306Z,17.04
2022-10-07T22:29:16.273Z,17.06
2022-10-07T22:31:44.364Z,17.08
2022-10-07T22:34:32.173Z,17.10
2022-10-07T22:37:00.114Z,17.13
2022-10-07T22:39:31.310Z,17.10
2022-10-07T22:41:58.941Z,17.13
2022-10-07T22:44:28.203Z,17.13
2022-10-07T22:46:56.686Z,17.14
2022-10-07T22:49:29.393Z,16.97
2022-10-07T22:51:59.669Z,16.94
2022-10-07T22:54:28.042Z,16.95
2022-10-07T22:56:55.767Z,17.00
2022-10-07T22:59:23.490Z,17.00
2022-10-07T23:01:50.973Z,16.96
2022-10-07T23:04:19.488Z,16.95
2022-10-07T23:06:47.320Z,16.94
2022-10-07T23:09:14.730Z,16.92
2022-10-07T23:11:42.239Z,16.89
2022-10-07T23:14:09.989Z,16.82
2022-10-07T23:16:37.443Z,16.81
2022-10-07T23:19:04.866Z,16.82
2022-10-07T23:21:34.290Z,16.80
2022-10-07T23:24:07.384Z,16.69
2022-10-07T23:26:36.514Z,16.61
2022-10-07T23:29:04.150Z,16.52
2022-10-07T23:31:32.433Z,16.51
2022-10-07T23:34:01.842Z,16.50
2022-10-07T23:36:29.870Z,16.49
2022-10-07T23:38:59.470Z,16.49
2022-10-07T23:41:29.374Z,16.49
2022-10-07T23:43:58.748Z,16.49
2022-10-07T23:46:27.315Z,16.51
2022-10-07T23:48:56.047Z,16.50
2022-10-07T23:51:26.131Z,16.43
2022-10-07T23:53:56.523Z,16.55
2022-10-07T23:56:24.469Z,16.45
2022-10-07T23:58:52.122Z,16.54
